createdAt,value
2019-06-27T00:01:08.509Z,11.50
2019-06-27T00:03:36.971Z,13.88
2019-06-27T00:06:05.525Z,13.00
2019-06-27T00:08:34.285Z,12.05
2019-06-27T00:11:02.977Z,15.32
2019-06-27T00:13:31.669Z,14.50
2019-06-27T00:16:00.066Z,16.57
2019-06-27T00:18:28.409Z,13.55
2019-06-27T00:21:00.214Z,12.93
2019-06-27T00:23:28.951Z,13.75
2019-06-27T00:25:57.453Z,15.23
2019-06-27T00:28:25.891Z,16.42
2019-06-27T00:30:54.382Z,15.25
2019-06-27T00:33:22.912Z,14.55
2019-06-27T00:35:52.529Z,15.60
2019-06-27T00:38:21.042Z,16.80
2019-06-27T00:40:49.648Z,17.48
2019-06-27T00:43:18.286Z,19.02
2019-06-27T00:45:46.747Z,17.77
2019-06-27T00:48:15.161Z,17.95
2019-06-27T00:50:45.013Z,20.10
2019-06-27T00:53:13.439Z,16.82
2019-06-27T00:55:42.069Z,15.20
2019-06-27T00:58:10.592Z,15.03
2019-06-27T01:00:39.023Z,16.12
2019-06-27T01:03:07.585Z,15.25
2019-06-27T01:05:36.143Z,14.10
2019-06-27T01:08:04.803Z,12.82
2019-06-27T01:10:33.387Z,13.25
2019-06-27T01:13:01.985Z,13.85
2019-06-27T01:15:30.619Z,12.73
2019-06-27T01:17:59.078Z,13.50
2019-06-27T01:20:27.678Z,13.05
2019-06-27T01:22:56.164Z,14.58
2019-06-27T01:25:24.863Z,12.60
2019-06-27T01:27:53.480Z,12.13
2019-06-27T01:30:22.079Z,14.83
2019-06-27T01:32:50.602Z,13.50
2019-06-27T01:35:19.309Z,12.13
2019-06-27T01:37:47.682Z,13.90
2019-06-27T01:40:16.534Z,12.53
2019-06-27T01:42:45.228Z,15.05
2019-06-27T01:45:22.175Z,11.53
2019-06-27T01:47:50.673Z,10.98
2019-06-27T01:50:19.076Z,13.32
2019-06-27T01:52:48.681Z,11.55
2019-06-27T01:55:17.387Z,13.45
2019-06-27T01:57:47.291Z,11.00
2019-06-27T02:00:17.603Z,10.90
2019-06-27T02:02:46.268Z,10.50
2019-06-27T02:05:14.919Z,11.25
2019-06-27T02:07:43.647Z,11.75
2019-06-27T02:10:12.477Z,12.33
2019-06-27T02:12:41.078Z,10.65
2019-06-27T02:15:09.864Z,12.75
2019-06-27T02:17:38.568Z,12.63
2019-06-27T02:20:08.196Z,11.12
2019-06-27T02:22:36.722Z,17.95
2019-06-27T02:25:05.592Z,12.43
2019-06-27T02:27:34.144Z,14.18
2019-06-27T02:30:03.050Z,12.75
2019-06-27T02:32:31.389Z,12.03
2019-06-27T02:34:59.867Z,10.48
2019-06-27T02:37:28.386Z,14.25
2019-06-27T02:39:57.101Z,13.93
2019-06-27T02:42:25.617Z,12.98
2019-06-27T02:44:54.232Z,11.15
2019-06-27T02:47:22.567Z,17.30
2019-06-27T02:49:51.163Z,14.20
2019-06-27T02:52:19.864Z,14.43
2019-06-27T02:54:48.338Z,18.32
2019-06-27T02:57:16.810Z,14.38
2019-06-27T02:59:45.252Z,13.03
2019-06-27T03:02:13.603Z,14.07
2019-06-27T03:04:41.924Z,16.23
2019-06-27T03:07:10.380Z,17.57
2019-06-27T03:09:39.599Z,21.68
2019-06-27T03:12:07.931Z,15.80
2019-06-27T03:14:36.346Z,19.07
2019-06-27T03:17:04.912Z,17.27
2019-06-27T03:19:33.632Z,23.62
2019-06-27T03:22:05.575Z,17.57
2019-06-27T03:24:41.425Z,18.00
2019-06-27T03:27:09.844Z,24.00
2019-06-27T03:29:40.909Z,15.75
2019-06-27T03:32:11.329Z,15.90
2019-06-27T03:34:39.745Z,18.55
2019-06-27T03:37:12.539Z,19.50
2019-06-27T03:39:40.926Z,23.27
2019-06-27T03:42:09.337Z,15.95
2019-06-27T03:44:43.893Z,17.73
2019-06-27T03:47:15.770Z,15.48
2019-06-27T03:49:44.385Z,16.40
2019-06-27T03:52:20.161Z,15.20
2019-06-27T03:54:52.155Z,14.65
2019-06-27T03:57:24.002Z,13.70
2019-06-27T03:59:53.514Z,18.33
2019-06-27T04:02:22.851Z,16.15
2019-06-27T04:05:59.888Z,16.35
2019-06-27T04:09:51.381Z,15.15
2019-06-27T04:12:28.832Z,16.27
2019-06-27T04:14:57.113Z,16.73
2019-06-27T04:17:25.627Z,13.15
2019-06-27T04:19:54.022Z,14.10
2019-06-27T04:22:22.332Z,14.03
2019-06-27T04:24:50.791Z,13.75
2019-06-27T04:27:19.162Z,14.43
2019-06-27T04:29:47.606Z,13.88
2019-06-27T04:32:16.089Z,15.40
2019-06-27T04:34:44.712Z,18.82
2019-06-27T04:37:13.130Z,14.25
2019-06-27T04:39:41.629Z,18.42
2019-06-27T04:42:09.981Z,14.28
2019-06-27T04:44:38.430Z,14.47
2019-06-27T04:47:06.837Z,14.20
2019-06-27T04:49:35.269Z,14.13
2019-06-27T04:52:03.704Z,15.25
2019-06-27T04:54:32.003Z,15.53
2019-06-27T04:57:00.448Z,17.92
2019-06-27T04:59:28.866Z,17.85
2019-06-27T05:01:57.214Z,16.37
2019-06-27T05:04:29.387Z,16.42
2019-06-27T05:06:57.647Z,19.37
2019-06-27T05:09:27.257Z,16.37
2019-06-27T05:11:58.578Z,16.82
2019-06-27T05:14:26.858Z,16.95
2019-06-27T05:16:55.200Z,17.65
2019-06-27T05:19:23.780Z,17.45
2019-06-27T05:21:55.365Z,19.52
2019-06-27T05:24:24.432Z,17.80
2019-06-27T05:26:52.641Z,15.43
2019-06-27T05:29:21.181Z,14.45
2019-06-27T05:31:49.838Z,16.37
2019-06-27T05:34:18.253Z,15.25
2019-06-27T05:36:46.729Z,16.95
2019-06-27T05:39:15.223Z,18.67
2019-06-27T05:41:43.492Z,13.68
2019-06-27T05:44:12.928Z,14.20
2019-06-27T05:46:41.264Z,14.60
2019-06-27T05:49:09.919Z,14.58
2019-06-27T05:51:38.598Z,15.03
2019-06-27T05:54:06.956Z,16.97
2019-06-27T05:56:35.359Z,15.85
2019-06-27T05:59:05.418Z,16.75
2019-06-27T06:01:42.864Z,17.30
2019-06-27T06:04:13.836Z,16.27
2019-06-27T06:06:42.108Z,17.37
2019-06-27T06:09:10.445Z,14.40
2019-06-27T06:11:38.746Z,16.07
2019-06-27T06:14:09.341Z,17.80
2019-06-27T06:16:37.657Z,14.83
2019-06-27T06:19:05.955Z,14.68
2019-06-27T06:21:34.417Z,18.73
2019-06-27T06:24:02.914Z,16.65
2019-06-27T06:26:34.872Z,15.55
2019-06-27T06:29:03.288Z,15.03
2019-06-27T06:31:31.747Z,17.75
2019-06-27T06:34:00.158Z,16.90
2019-06-27T06:36:28.637Z,16.55
2019-06-27T06:38:57.043Z,16.75
2019-06-27T06:41:26.400Z,13.70
2019-06-27T06:43:55.140Z,13.60
2019-06-27T06:46:23.599Z,14.07
2019-06-27T06:49:31.996Z,16.70
2019-06-27T06:53:27.954Z,16.42
2019-06-27T07:03:58.504Z,13.70
2019-06-27T07:06:26.917Z,17.23
2019-06-27T07:09:01.564Z,15.05
2019-06-27T07:11:30.471Z,13.43
2019-06-27T07:13:58.975Z,13.28
2019-06-27T07:16:27.325Z,14.55
2019-06-27T07:18:55.650Z,16.97
2019-06-27T07:21:24.156Z,14.60
2019-06-27T07:23:52.536Z,15.23
2019-06-27T07:26:22.401Z,17.00
2019-06-27T07:28:53.291Z,13.00
2019-06-27T07:31:27.730Z,13.62
2019-06-27T07:33:57.916Z,14.03
2019-06-27T07:36:26.245Z,13.70
2019-06-27T07:38:54.620Z,14.70
2019-06-27T07:41:22.925Z,23.52
2019-06-27T07:44:05.302Z,17.48
2019-06-27T07:46:34.623Z,18.85
2019-06-27T07:49:06.426Z,22.95
2019-06-27T07:51:34.913Z,20.70
2019-06-27T07:54:06.405Z,16.02
2019-06-27T07:56:40.833Z,21.62
2019-06-27T07:59:09.479Z,19.62
2019-06-27T08:01:41.853Z,20.60
2019-06-27T08:04:10.448Z,17.27
2019-06-27T08:06:40.184Z,19.52
2019-06-27T08:09:37.186Z,17.52
2019-06-27T08:12:15.683Z,16.77
2019-06-27T08:14:44.416Z,19.12
2019-06-27T08:17:13.779Z,18.65
2019-06-27T08:20:03.511Z,16.65
2019-06-27T08:22:31.999Z,19.80
2019-06-27T08:25:00.464Z,16.40
2019-06-27T08:27:30.050Z,19.85
2019-06-27T08:29:59.896Z,18.52
2019-06-27T08:32:30.147Z,24.45
2019-06-27T08:35:00.963Z,21.10
2019-06-27T08:37:35.627Z,18.60
2019-06-27T08:40:27.481Z,15.30
2019-06-27T08:42:57.197Z,16.65
2019-06-27T08:45:29.085Z,20.43
2019-06-27T08:47:57.638Z,18.23
2019-06-27T08:50:28.437Z,21.62
2019-06-27T08:52:56.903Z,23.02
2019-06-27T08:55:27.956Z,24.65
2019-06-27T08:57:56.476Z,14.90
2019-06-27T09:00:31.720Z,13.28
2019-06-27T09:03:04.249Z,17.30
2019-06-27T09:05:32.767Z,17.60
2019-06-27T09:08:04.761Z,17.85
2019-06-27T09:10:36.903Z,21.20
2019-06-27T09:13:18.138Z,20.60
2019-06-27T09:15:46.661Z,15.23
2019-06-27T09:18:19.617Z,26.05
2019-06-27T09:20:56.100Z,17.32
2019-06-27T09:23:30.276Z,17.00
2019-06-27T09:25:59.920Z,21.37
2019-06-27T09:28:28.526Z,22.42
2019-06-27T09:30:56.998Z,16.80
2019-06-27T09:33:25.573Z,18.52
2019-06-27T09:36:00.143Z,15.00
2019-06-27T09:38:29.603Z,15.83
2019-06-27T09:40:58.033Z,19.10
2019-06-27T09:43:26.760Z,18.32
2019-06-27T09:45:58.558Z,15.30
2019-06-27T09:48:27.065Z,22.40
2019-06-27T09:50:56.661Z,19.40
2019-06-27T09:53:28.334Z,18.98
2019-06-27T09:55:57.862Z,16.60
2019-06-27T09:58:26.324Z,12.55
2019-06-27T10:01:06.512Z,19.92
2019-06-27T10:03:35.889Z,23.20
2019-06-27T10:06:19.455Z,14.15
2019-06-27T10:08:48.939Z,13.90
2019-06-27T10:11:17.418Z,19.70
2019-06-27T10:13:47.087Z,15.72
2019-06-27T10:16:15.434Z,16.97
2019-06-27T10:18:43.998Z,18.02
2019-06-27T10:21:21.129Z,14.20
2019-06-27T10:24:02.985Z,16.12
2019-06-27T10:26:33.443Z,14.85
2019-06-27T10:29:04.367Z,13.83
2019-06-27T10:31:51.188Z,17.45
2019-06-27T10:34:26.763Z,15.08
2019-06-27T10:36:59.434Z,12.05
2019-06-27T10:39:27.960Z,12.33
2019-06-27T10:42:04.705Z,15.75
2019-06-27T10:44:33.204Z,16.23
2019-06-27T10:47:01.635Z,13.62
2019-06-27T10:49:30.022Z,16.10
2019-06-27T10:51:58.368Z,17.30
2019-06-27T10:54:29.096Z,12.20
2019-06-27T10:56:57.426Z,16.97
2019-06-27T10:59:27.342Z,19.10
2019-06-27T11:01:55.756Z,14.98
2019-06-27T11:04:24.251Z,15.48
2019-06-27T11:06:52.636Z,17.48
2019-06-27T11:09:24.020Z,17.25
2019-06-27T11:11:52.529Z,13.50
2019-06-27T11:14:23.210Z,16.77
2019-06-27T11:16:51.573Z,19.05
2019-06-27T11:19:19.884Z,15.58
2019-06-27T11:21:48.182Z,16.42
2019-06-27T11:24:16.640Z,15.43
2019-06-27T11:26:44.905Z,20.32
2019-06-27T11:29:13.233Z,17.48
2019-06-27T11:31:53.967Z,13.90
2019-06-27T11:34:22.417Z,19.50
2019-06-27T11:36:53.132Z,21.15
2019-06-27T11:39:23.410Z,15.50
2019-06-27T11:41:51.730Z,17.02
2019-06-27T11:44:21.149Z,18.40
2019-06-27T11:46:50.378Z,17.12
2019-06-27T11:49:18.826Z,19.10
2019-06-27T11:51:47.123Z,15.13
2019-06-27T11:54:15.493Z,16.15
2019-06-27T11:56:44.003Z,18.00
2019-06-27T11:59:12.337Z,13.60
2019-06-27T12:01:40.750Z,11.80
2019-06-27T12:04:09.223Z,18.00
2019-06-27T12:06:37.832Z,12.60
2019-06-27T12:09:06.299Z,13.90
2019-06-27T12:11:34.891Z,12.37
2019-06-27T12:14:03.367Z,14.25
2019-06-27T12:16:31.997Z,15.25
2019-06-27T12:19:03.464Z,13.55
2019-06-27T12:21:32.093Z,12.82
2019-06-27T12:24:00.833Z,14.68
2019-06-27T12:26:29.351Z,17.17
2019-06-27T12:28:57.747Z,14.05
2019-06-27T12:31:26.164Z,12.10
2019-06-27T12:34:06.107Z,18.77
2019-06-27T12:36:24.701Z,13.08
2019-06-27T12:38:53.196Z,18.65
2019-06-27T12:41:25.970Z,13.72
2019-06-27T12:43:54.456Z,22.27
2019-06-27T12:46:22.943Z,12.60
2019-06-27T12:48:51.604Z,11.15
2019-06-27T12:51:37.055Z,18.02
2019-06-27T12:54:09.491Z,11.97
2019-06-27T12:56:39.195Z,11.55
2019-06-27T12:59:07.625Z,15.65
2019-06-27T13:01:36.252Z,15.10
2019-06-27T13:04:04.620Z,12.00
2019-06-27T13:06:33.100Z,16.17
2019-06-27T13:09:01.430Z,12.10
2019-06-27T13:11:31.577Z,14.73
2019-06-27T13:13:59.880Z,11.65
2019-06-27T13:16:31.109Z,13.18
2019-06-27T13:19:11.447Z,12.63
2019-06-27T13:21:39.976Z,14.15
2019-06-27T13:24:08.237Z,10.95
2019-06-27T13:26:46.992Z,17.65
2019-06-27T13:29:15.248Z,15.38
2019-06-27T13:31:43.705Z,14.85
2019-06-27T13:34:12.206Z,14.43
2019-06-27T13:36:40.675Z,13.93
2019-06-27T13:39:09.072Z,14.65
2019-06-27T13:41:37.549Z,13.50
2019-06-27T13:44:06.960Z,12.15
2019-06-27T13:46:41.543Z,17.30
2019-06-27T13:49:11.049Z,12.88
2019-06-27T13:51:39.718Z,11.93
2019-06-27T13:54:09.600Z,13.08
2019-06-27T13:56:38.672Z,15.98
2019-06-27T13:59:09.375Z,10.78
2019-06-27T14:01:39.082Z,13.55
2019-06-27T14:04:11.142Z,11.60
2019-06-27T14:06:42.830Z,13.50
2019-06-27T14:09:23.283Z,12.75
2019-06-27T14:11:48.937Z,11.85
2019-06-27T14:14:18.524Z,16.82
2019-06-27T14:16:51.031Z,10.90
2019-06-27T14:19:25.976Z,13.60
2019-06-27T14:21:54.422Z,12.88
2019-06-27T14:24:27.545Z,13.68
2019-06-27T14:27:38.051Z,14.68
2019-06-27T14:30:20.542Z,12.55
2019-06-27T14:33:12.706Z,11.88
2019-06-27T14:37:13.099Z,10.93
2019-06-27T14:39:49.375Z,13.55
2019-06-27T14:42:17.840Z,12.35
2019-06-27T14:44:50.642Z,13.35
2019-06-27T14:47:20.365Z,11.83
2019-06-27T14:49:48.839Z,14.28
2019-06-27T14:52:17.338Z,13.60
2019-06-27T14:54:47.349Z,11.95
2019-06-27T14:57:20.096Z,11.50
2019-06-27T14:59:54.106Z,13.90
2019-06-27T15:02:25.735Z,11.12
2019-06-27T15:04:59.968Z,9.55
2019-06-27T15:07:28.718Z,15.65
2019-06-27T15:10:00.734Z,14.98
2019-06-27T15:12:35.674Z,14.05
2019-06-27T15:15:02.845Z,11.85
2019-06-27T15:17:31.304Z,13.68
2019-06-27T15:20:03.190Z,11.48
2019-06-27T15:22:32.581Z,17.70
2019-06-27T15:25:00.977Z,13.78
2019-06-27T15:27:29.332Z,15.50
2019-06-27T15:29:58.660Z,11.93
2019-06-27T15:32:27.131Z,14.18
2019-06-27T15:34:55.537Z,16.42
2019-06-27T15:37:23.892Z,14.03
2019-06-27T15:39:52.212Z,13.98
2019-06-27T15:42:20.658Z,17.80
2019-06-27T15:44:49.046Z,11.85
2019-06-27T15:47:17.464Z,14.45
2019-06-27T15:49:45.962Z,15.88
2019-06-27T15:52:14.500Z,15.78
2019-06-27T15:54:42.901Z,19.40
2019-06-27T15:57:11.312Z,20.00
2019-06-27T15:59:39.846Z,16.93
2019-06-27T16:02:08.289Z,14.68
2019-06-27T16:04:36.815Z,13.13
2019-06-27T16:07:05.370Z,13.08
2019-06-27T16:09:34.859Z,14.20
2019-06-27T16:12:15.571Z,17.70
2019-06-27T16:14:44.187Z,14.10
2019-06-27T16:17:14.701Z,15.40
2019-06-27T16:19:45.501Z,17.62
2019-06-27T16:22:17.811Z,19.45
2019-06-27T16:24:46.669Z,41.13
2019-06-27T16:27:14.996Z,26.40
2019-06-27T16:29:44.476Z,15.05
2019-06-27T16:32:12.991Z,16.85
2019-06-27T16:34:41.438Z,13.88
2019-06-27T16:37:09.843Z,19.37
2019-06-27T16:39:39.128Z,17.05
2019-06-27T16:42:07.582Z,14.13
2019-06-27T16:44:35.950Z,26.60
2019-06-27T16:47:04.431Z,16.35
2019-06-27T16:49:32.908Z,13.38
2019-06-27T16:52:01.481Z,28.02
2019-06-27T16:54:29.914Z,16.27
2019-06-27T16:56:58.330Z,15.70
2019-06-27T16:59:27.462Z,18.45
2019-06-27T17:01:56.092Z,15.85
2019-06-27T17:04:24.487Z,13.28
2019-06-27T17:06:53.165Z,19.25
2019-06-27T17:09:21.833Z,17.15
2019-06-27T17:11:50.266Z,13.98
2019-06-27T17:14:18.645Z,27.25
2019-06-27T17:16:46.999Z,20.65
2019-06-27T17:19:15.523Z,16.10
2019-06-27T17:21:44.125Z,15.32
2019-06-27T17:24:12.626Z,18.55
2019-06-27T17:26:41.501Z,13.83
2019-06-27T17:29:09.860Z,17.57
2019-06-27T17:31:38.330Z,13.53
2019-06-27T17:34:06.761Z,12.18
2019-06-27T17:36:35.211Z,11.73
2019-06-27T17:39:05.459Z,13.35
2019-06-27T17:41:33.831Z,12.90
2019-06-27T17:44:03.341Z,13.13
2019-06-27T17:46:31.743Z,13.43
2019-06-27T17:49:00.182Z,13.58
2019-06-27T17:51:28.677Z,18.52
2019-06-27T17:53:57.175Z,14.10
2019-06-27T17:56:25.743Z,19.15
2019-06-27T17:58:54.195Z,15.00
2019-06-27T18:01:39.423Z,17.07
2019-06-27T18:04:08.974Z,13.55
2019-06-27T18:06:37.511Z,31.77
2019-06-27T18:09:06.104Z,17.05
2019-06-27T18:11:35.557Z,24.82
2019-06-27T18:14:04.179Z,24.05
2019-06-27T18:16:36.625Z,27.25
2019-06-27T18:19:09.695Z,23.73
2019-06-27T18:21:38.134Z,25.17
2019-06-27T18:24:10.200Z,24.02
2019-06-27T18:26:38.557Z,22.15
2019-06-27T18:29:09.754Z,30.05
2019-06-27T18:31:38.243Z,28.50
2019-06-27T18:34:06.618Z,25.75
2019-06-27T18:36:35.010Z,27.58
2019-06-27T18:39:03.696Z,26.65
2019-06-27T18:41:32.553Z,29.20
2019-06-27T18:44:01.325Z,28.83
2019-06-27T18:46:29.728Z,35.25
2019-06-27T18:49:00.152Z,27.77
2019-06-27T18:51:28.610Z,28.73
2019-06-27T18:53:56.950Z,28.42
2019-06-27T18:56:25.500Z,29.18
2019-06-27T18:58:53.882Z,30.55
2019-06-27T19:01:22.341Z,29.40
2019-06-27T19:03:51.386Z,30.17
2019-06-27T19:06:19.791Z,28.17
2019-06-27T19:08:48.137Z,29.87
2019-06-27T19:11:16.499Z,29.37
2019-06-27T19:13:44.870Z,32.53
2019-06-27T19:16:14.273Z,28.45
2019-06-27T19:18:50.688Z,27.25
2019-06-27T19:21:24.786Z,27.85
2019-06-27T19:24:04.952Z,25.75
2019-06-27T19:26:33.508Z,26.73
2019-06-27T19:29:01.959Z,28.10
2019-06-27T19:31:30.722Z,32.65
2019-06-27T19:33:59.051Z,34.63
2019-06-27T19:36:27.558Z,32.63
2019-06-27T19:38:55.929Z,30.62
2019-06-27T19:41:24.271Z,30.55
2019-06-27T19:43:52.626Z,30.88
2019-06-27T19:46:21.164Z,30.17
2019-06-27T19:48:50.630Z,33.00
2019-06-27T19:51:19.149Z,35.17
2019-06-27T19:53:47.479Z,39.48
2019-06-27T19:56:15.829Z,37.03
2019-06-27T19:58:44.117Z,38.67
2019-06-27T20:01:12.572Z,35.20
2019-06-27T20:03:40.977Z,33.58
2019-06-27T20:06:09.489Z,28.07
2019-06-27T20:08:38.084Z,33.60
2019-06-27T20:11:06.465Z,37.58
2019-06-27T20:13:34.839Z,36.03
2019-06-27T20:16:04.291Z,39.03
2019-06-27T20:18:32.720Z,37.45
2019-06-27T20:21:01.271Z,41.70
2019-06-27T20:23:29.757Z,39.45
2019-06-27T20:25:58.011Z,31.50
2019-06-27T20:28:26.491Z,35.48
2019-06-27T20:30:54.837Z,32.40
2019-06-27T20:33:23.197Z,31.00
2019-06-27T20:35:51.666Z,32.40
2019-06-27T20:38:33.846Z,34.18
2019-06-27T20:40:50.154Z,31.40
2019-06-27T20:43:18.602Z,34.75
2019-06-27T20:45:46.987Z,37.50
2019-06-27T20:48:15.539Z,35.60
2019-06-27T20:50:43.947Z,42.38
2019-06-27T20:53:12.308Z,36.90
2019-06-27T20:55:40.597Z,40.33
2019-06-27T20:58:09.026Z,37.63
2019-06-27T21:00:37.369Z,35.83
2019-06-27T21:03:05.810Z,40.80
2019-06-27T21:05:34.134Z,37.95
2019-06-27T21:08:02.632Z,31.42
2019-06-27T21:10:31.017Z,39.03
2019-06-27T21:12:59.634Z,38.10
2019-06-27T21:15:28.354Z,40.33
2019-06-27T21:17:56.772Z,36.38
2019-06-27T21:20:25.143Z,37.10
2019-06-27T21:22:53.699Z,37.10
2019-06-27T21:25:22.139Z,33.30
2019-06-27T21:27:50.516Z,35.63
2019-06-27T21:30:19.064Z,36.30
2019-06-27T21:32:48.491Z,33.45
2019-06-27T21:35:17.034Z,33.25
2019-06-27T21:37:45.544Z,31.87
2019-06-27T21:40:14.242Z,30.17
2019-06-27T21:42:42.670Z,30.37
2019-06-27T21:45:11.216Z,30.35
2019-06-27T21:47:39.565Z,31.42
2019-06-27T21:50:08.286Z,34.30
2019-06-27T21:52:36.772Z,35.33
2019-06-27T21:55:06.444Z,34.40
2019-06-27T21:57:35.016Z,36.20
2019-06-27T22:00:04.528Z,32.50
2019-06-27T22:02:34.797Z,33.38
2019-06-27T22:05:03.494Z,36.65
2019-06-27T22:07:31.955Z,42.88
2019-06-27T22:10:00.418Z,40.88
2019-06-27T22:12:29.010Z,37.40
2019-06-27T22:14:57.393Z,34.90
2019-06-27T22:17:25.942Z,37.80
2019-06-27T22:19:54.239Z,35.17
2019-06-27T22:22:22.729Z,37.15
2019-06-27T22:24:51.158Z,40.23
2019-06-27T22:27:19.540Z,42.78
2019-06-27T22:29:47.978Z,41.80
2019-06-27T22:32:16.394Z,39.03
2019-06-27T22:34:44.858Z,43.13
2019-06-27T22:37:12.989Z,42.62
2019-06-27T22:39:59.643Z,39.25
2019-06-27T22:42:45.932Z,46.70
2019-06-27T22:45:32.443Z,42.30
2019-06-27T22:48:12.309Z,41.08
2019-06-27T22:51:05.854Z,41.25
2019-06-27T22:53:39.537Z,42.62
2019-06-27T22:56:07.808Z,43.58
2019-06-27T22:58:36.190Z,44.93
2019-06-27T23:01:06.386Z,43.20
2019-06-27T23:03:34.821Z,41.45
2019-06-27T23:06:03.659Z,39.55
2019-06-27T23:08:32.090Z,40.92
2019-06-27T23:11:00.490Z,38.80
2019-06-27T23:13:29.103Z,42.60
2019-06-27T23:15:57.607Z,42.15
2019-06-27T23:18:25.891Z,41.33
2019-06-27T23:20:54.169Z,42.73
2019-06-27T23:23:22.580Z,43.17
2019-06-27T23:25:50.986Z,39.60
2019-06-27T23:28:19.238Z,38.00
2019-06-27T23:30:47.726Z,37.33
2019-06-27T23:33:15.959Z,36.50
2019-06-27T23:35:44.216Z,36.40
2019-06-27T23:38:12.563Z,38.88
2019-06-27T23:40:40.956Z,36.13
2019-06-27T23:43:09.252Z,35.33
2019-06-27T23:45:38.570Z,33.63
2019-06-27T23:48:07.010Z,38.42
2019-06-27T23:50:35.445Z,37.85
2019-06-27T23:53:03.961Z,34.58
2019-06-27T23:55:32.394Z,39.10
2019-06-27T23:58:00.759Z,36.80
